Time;durP1;ratioP1;P1;durP2;ratioP2;P2;SDS_P1;SDS_P2;PMS_P1;PMS_P2;Temp;Humidity;BMP_temperature;BMP_pressure;BME280_temperature;BME280_humidity;BME280_pressure;Samples;Min_cycle;Max_cycle;Signal;HPM_P1;HPM_P2
2022/12/16 00:02:23;;;;;;;70.57;27.08;;;;;;;-4.47;86.71;100537.19;5075860;28;20398;-48
2022/12/16 00:04:51;;;;;;;65.75;27.23;;;;;;;-4.44;86.77;100524.97;5076772;28;20387;-50
2022/12/16 00:07:18;;;;;;;74.68;27.92;;;;;;;-4.44;87.05;100529.28;5076363;28;20513;-48
2022/12/16 00:09:45;;;;;;;63.28;25.58;;;;;;;-4.44;86.81;100526.69;5076855;28;20045;-52
2022/12/16 00:12:13;;;;;;;62.75;27.27;;;;;;;-4.44;86.95;100524.09;5076872;28;20483;-47
2022/12/16 00:14:39;;;;;;;68.90;26.00;;;;;;;-4.51;87.20;100525.25;5076770;28;20045;-48
2022/12/16 00:17:06;;;;;;;68.70;27.17;;;;;;;-4.61;87.73;100526.56;5076917;28;20052;-49
2022/12/16 00:19:34;;;;;;;66.22;27.08;;;;;;;-4.54;87.64;100520.22;5076679;28;20049;-48
2022/12/16 00:22:00;;;;;;;64.70;26.67;;;;;;;-4.62;87.63;100530.88;5076465;28;20044;-48
2022/12/16 00:24:30;;;;;;;66.22;26.50;;;;;;;-4.73;87.68;100527.88;5076418;28;20409;-47
2022/12/16 00:26:56;;;;;;;60.88;26.25;;;;;;;-4.64;87.42;100525.78;5076496;28;20494;-49
2022/12/16 00:29:23;;;;;;;66.25;27.40;;;;;;;-4.60;87.48;100521.31;5076707;28;20389;-48
2022/12/16 00:31:50;;;;;;;73.13;27.92;;;;;;;-4.54;87.64;100531.41;5075326;28;20065;-47
2022/12/16 00:34:17;;;;;;;62.85;27.38;;;;;;;-4.48;87.43;100520.78;5076464;28;20440;-49
2022/12/16 00:36:43;;;;;;;68.30;27.65;;;;;;;-4.45;87.06;100527.63;5076390;28;20049;-47
2022/12/16 00:39:10;;;;;;;67.10;26.15;;;;;;;-4.57;87.28;100522.94;5076089;28;20076;-47
2022/12/16 00:41:37;;;;;;;64.90;26.98;;;;;;;-4.61;87.45;100532.56;5076429;28;20041;-47
2022/12/16 00:44:04;;;;;;;63.67;27.92;;;;;;;-4.63;87.67;100527.44;5076255;28;20094;-47
2022/12/16 00:46:30;;;;;;;72.05;27.60;;;;;;;-4.54;88.04;100530.59;5076120;28;20036;-48
2022/12/16 00:48:57;;;;;;;69.72;28.40;;;;;;;-4.52;87.62;100537.38;5076223;28;20049;-47
2022/12/16 00:51:24;;;;;;;68.32;26.27;;;;;;;-4.77;89.32;100541.84;5074722;28;20036;-48
2022/12/16 00:53:51;;;;;;;73.80;28.25;;;;;;;-4.63;88.73;100532.63;5076245;28;20097;-48
2022/12/16 00:56:18;;;;;;;67.18;27.15;;;;;;;-4.57;87.72;100535.88;5075853;28;20055;-47
2022/12/16 00:58:45;;;;;;;74.57;28.73;;;;;;;-4.66;87.77;100534.50;5076213;28;20044;-48
2022/12/16 01:01:12;;;;;;;67.28;27.52;;;;;;;-4.72;87.57;100537.34;5075777;28;20143;-47
2022/12/16 01:03:38;;;;;;;66.78;28.13;;;;;;;-4.71;87.74;100539.00;5076085;28;20052;-48
2022/12/16 01:06:10;;;;;;;63.75;28.00;;;;;;;-4.76;88.51;100539.22;5075158;28;20052;-48
2022/12/16 01:08:37;;;;;;;72.38;27.63;;;;;;;-4.69;88.15;100532.06;5075999;28;20207;-48
2022/12/16 01:11:05;;;;;;;79.97;28.50;;;;;;;-4.69;88.19;100527.72;5075674;28;20053;-47
2022/12/16 01:13:32;;;;;;;72.20;29.13;;;;;;;-4.66;87.93;100534.50;5075225;28;20401;-47
2022/12/16 01:16:00;;;;;;;65.95;26.58;;;;;;;-4.74;87.87;100541.75;5076100;28;20486;-50
2022/12/16 01:18:27;;;;;;;64.72;27.17;;;;;;;-4.67;87.47;100540.59;5075514;28;20048;-49
2022/12/16 01:21:00;;;;;;;65.60;27.40;;;;;;;-4.68;87.42;100541.50;5075761;28;20548;-47
2022/12/16 01:23:27;;;;;;;69.90;26.60;;;;;;;-4.66;87.37;100544.84;5075393;28;20127;-48
2022/12/16 01:25:58;;;;;;;67.45;26.38;;;;;;;-4.68;87.04;100554.44;5075737;28;20552;-50
2022/12/16 01:28:26;;;;;;;76.65;28.70;;;;;;;-4.61;87.11;100555.88;5075395;28;20044;-50
2022/12/16 01:30:56;;;;;;;73.15;27.50;;;;;;;-4.66;87.29;100553.47;5075688;28;20379;-47
2022/12/16 01:33:23;;;;;;;72.75;28.30;;;;;;;-4.66;87.09;100560.38;5075363;28;20033;-48
2022/12/16 01:35:58;;;;;;;72.97;27.15;;;;;;;-4.68;87.13;100568.22;5075195;28;20547;-49
2022/12/16 01:38:24;;;;;;;67.55;27.30;;;;;;;-4.73;87.43;100564.97;5075472;28;20080;-47
2022/12/16 01:40:51;;;;;;;68.07;27.33;;;;;;;-4.65;87.48;100568.09;5074804;28;20057;-52
2022/12/16 01:43:21;;;;;;;75.40;28.55;;;;;;;-4.53;86.77;100563.31;5075307;28;20041;-51
2022/12/16 01:45:48;;;;;;;72.60;27.75;;;;;;;-4.57;86.17;100570.38;5075151;28;20071;-48
2022/12/16 01:48:30;;;;;;;67.20;28.35;;;;;;;-4.53;86.23;100573.69;5075189;28;20048;-47
2022/12/16 01:51:00;;;;;;;;;;;;;;;-4.66;86.35;100571.59;5075360;28;20067;-49
2022/12/16 01:53:29;;;;;;;58.38;24.75;;;;;;;-4.89;86.37;100576.84;5074757;28;20290;-51
2022/12/16 01:55:59;;;;;;;64.10;25.45;;;;;;;-4.88;86.73;100574.16;5074807;28;20044;-48
2022/12/16 01:58:30;;;;;;;68.75;26.58;;;;;;;-4.81;86.40;100579.97;5074870;28;20072;-47
2022/12/16 02:00:58;;;;;;;61.28;25.55;;;;;;;-4.89;86.93;100582.00;5075097;28;20401;-48
2022/12/16 02:03:25;;;;;;;67.07;28.05;;;;;;;-4.91;86.66;100586.38;5074711;28;20045;-47
2022/12/16 02:05:52;;;;;;;61.35;26.08;;;;;;;-4.93;86.52;100585.59;5074127;28;20557;-47
2022/12/16 02:08:21;;;;;;;72.50;27.40;;;;;;;-4.89;86.11;100584.59;5074347;28;20055;-48
2022/12/16 02:11:15;;;;;;;62.63;26.67;;;;;;;-4.86;86.08;100582.75;5074698;28;20045;-47
2022/12/16 02:14:01;;;;;;;55.22;24.58;;;;;;;-4.81;85.62;100585.13;5074363;28;20109;-47
2022/12/16 02:19:42;;;;;;;64.68;26.77;;;;;;;-4.88;85.40;100581.09;5111109;27;20387;-50
2022/12/16 02:22:40;;;;;;;61.97;26.30;;;;;;;-4.89;85.95;100579.44;5111205;28;20045;-46
2022/12/16 02:25:47;;;;;;;68.70;27.38;;;;;;;-4.92;85.41;100582.13;5110876;28;20035;-47
2022/12/16 02:28:53;;;;;;;64.47;25.85;;;;;;;-4.92;85.39;100582.97;5111106;28;20064;-47
2022/12/16 02:31:54;;;;;;;61.13;26.38;;;;;;;-4.91;85.06;100591.56;5110590;28;20063;-48
2022/12/16 02:34:50;;;;;;;70.15;27.10;;;;;;;-4.95;85.48;100583.06;5110721;28;20043;-46
2022/12/16 02:37:37;;;;;;;68.20;26.65;;;;;;;-5.00;85.42;100582.44;5110384;28;20044;-50
2022/12/16 02:40:15;;;;;;;66.05;26.67;;;;;;;-4.99;85.38;100593.63;5111145;28;20044;-48
2022/12/16 02:42:49;;;;;;;60.33;25.75;;;;;;;-4.96;85.36;100588.34;5110866;28;20420;-51
2022/12/16 02:45:21;;;;;;;72.35;27.10;;;;;;;-4.95;85.07;100598.59;5111003;28;20118;-49
2022/12/16 02:47:48;;;;;;;69.32;27.20;;;;;;;-4.95;85.15;100590.84;5110741;28;20043;-48
2022/12/16 02:53:01;;;;;;;62.15;26.15;;;;;;;-5.05;85.06;100590.34;5131603;27;20383;-46
2022/12/16 02:55:38;;;;;;;66.13;26.55;;;;;;;-5.07;85.74;100589.56;5111047;28;20040;-46
2022/12/16 02:58:31;;;;;;;60.03;26.65;;;;;;;-5.11;86.22;100588.00;5111340;28;20511;-46
2022/12/16 03:01:22;;;;;;;62.28;26.33;;;;;;;-5.12;86.02;100591.47;5110757;28;20055;-46
2022/12/16 03:04:00;;;;;;;63.22;26.42;;;;;;;-5.10;85.75;100591.44;5110865;28;20123;-46
2022/12/16 03:06:29;;;;;;;61.88;27.92;;;;;;;-5.12;85.90;100590.66;5110345;28;20479;-46
2022/12/16 03:09:00;;;;;;;69.25;28.42;;;;;;;-5.12;85.77;100601.81;5110713;28;20123;-46
2022/12/16 03:11:29;;;;;;;69.43;27.33;;;;;;;-5.17;85.86;100606.31;5110822;28;20040;-47
2022/12/16 03:14:00;;;;;;;62.17;25.23;;;;;;;-5.16;85.79;100596.84;5111074;28;20400;-46
2022/12/16 03:16:31;;;;;;;62.53;26.38;;;;;;;-5.14;85.70;100593.28;5110816;28;20135;-47
2022/12/16 03:19:04;;;;;;;63.78;27.50;;;;;;;-5.10;85.83;100597.44;5110578;28;20555;-47
2022/12/16 03:21:38;;;;;;;66.57;26.48;;;;;;;-5.15;85.77;100594.19;5110747;28;20039;-47
2022/12/16 03:24:07;;;;;;;66.38;27.15;;;;;;;-5.10;85.68;100599.19;5110593;28;20044;-48
2022/12/16 03:26:42;;;;;;;59.80;25.88;;;;;;;-5.08;85.68;100605.97;5110782;28;20072;-49
2022/12/16 03:29:15;;;;;;;62.35;26.27;;;;;;;-5.09;85.34;100598.31;5110589;28;20040;-54
2022/12/16 03:31:50;;;;;;;65.63;27.15;;;;;;;-5.07;85.44;100601.66;5110744;28;20044;-46
2022/12/16 03:34:41;;;;;;;58.45;24.20;;;;;;;-5.10;85.34;100609.53;5110452;28;20126;-46
2022/12/16 03:37:10;;;;;;;55.45;23.77;;;;;;;-5.03;84.56;100605.81;5110281;28;20043;-46
2022/12/16 03:39:42;;;;;;;59.67;25.52;;;;;;;-5.13;85.11;100607.91;5110278;28;20481;-47
2022/12/16 03:42:11;;;;;;;60.08;24.85;;;;;;;-5.10;84.62;100614.72;5110573;28;20481;-46
2022/12/16 03:44:38;;;;;;;64.93;25.95;;;;;;;-5.19;84.88;100615.06;5110457;28;20077;-47
2022/12/16 03:47:05;;;;;;;62.55;25.27;;;;;;;-5.25;85.05;100610.97;5110230;28;20081;-47
2022/12/16 03:49:32;;;;;;;66.65;25.40;;;;;;;-5.18;84.82;100603.78;5109925;28;20044;-47
2022/12/16 03:51:58;;;;;;;57.38;25.27;;;;;;;-5.17;84.46;100601.16;5109326;28;20044;-49
2022/12/16 03:54:25;;;;;;;58.40;24.95;;;;;;;-5.18;84.88;100612.41;5109836;28;20448;-47
2022/12/16 03:56:53;;;;;;;59.42;25.70;;;;;;;-5.19;84.75;100612.47;5110092;28;20123;-49
2022/12/16 03:59:19;;;;;;;57.58;24.52;;;;;;;-5.16;84.66;100609.78;5110143;28;20048;-47
2022/12/16 04:01:46;;;;;;;58.40;24.50;;;;;;;-5.26;84.68;100610.13;5108846;28;20085;-50
2022/12/16 04:04:13;;;;;;;57.08;24.83;;;;;;;-5.30;85.42;100616.28;5097085;28;20048;-50
2022/12/16 04:06:39;;;;;;;56.72;25.00;;;;;;;-5.26;85.38;100619.59;5095132;28;20040;-50
2022/12/16 04:09:07;;;;;;;58.58;24.23;;;;;;;-5.31;85.56;100618.91;5096321;28;20056;-51
2022/12/16 04:25:35;;;;;;;58.97;24.67;;;;;;;-5.47;85.18;100626.41;5095384;28;20072;-51
2022/12/16 04:28:02;;;;;;;55.30;24.40;;;;;;;-5.32;85.45;100625.00;5096194;28;20113;-51
2022/12/16 04:30:33;;;;;;;57.83;23.50;;;;;;;-5.32;84.97;100637.94;5095782;28;20048;-50
